createdAt,value
2022-12-25T00:01:38.986Z,6.66
2022-12-25T00:04:05.624Z,6.70
2022-12-25T00:06:32.065Z,6.71
2022-12-25T00:08:58.496Z,6.73
2022-12-25T00:11:24.949Z,6.75
2022-12-25T00:13:51.392Z,6.78
2022-12-25T00:16:27.191Z,6.80
2022-12-25T00:18:55.710Z,6.82
2022-12-25T00:21:22.558Z,6.85
2022-12-25T00:23:57.650Z,6.88
2022-12-25T00:26:25.298Z,6.92
2022-12-25T00:28:56.921Z,6.96
2022-12-25T00:31:25.056Z,6.98
2022-12-25T00:33:52.826Z,6.98
2022-12-25T00:36:21.759Z,7.01
2022-12-25T00:38:48.451Z,7.02
2022-12-25T00:41:18.044Z,7.06
2022-12-25T00:43:44.673Z,7.06
2022-12-25T00:46:13.096Z,7.08
2022-12-25T00:48:40.606Z,7.11
2022-12-25T00:51:11.391Z,7.13
2022-12-25T00:53:37.961Z,7.16
2022-12-25T00:56:06.181Z,7.16
2022-12-25T00:58:34.857Z,7.17
2022-12-25T01:01:02.726Z,7.18
2022-12-25T01:03:29.258Z,7.20
2022-12-25T01:05:58.658Z,7.21
2022-12-25T01:08:26.332Z,7.22
2022-12-25T01:11:09.297Z,7.24
2022-12-25T01:13:37.258Z,7.26
2022-12-25T01:16:10.786Z,7.28
2022-12-25T01:18:38.378Z,7.29
2022-12-25T01:21:08.850Z,7.31
2022-12-25T01:23:35.549Z,7.32
2022-12-25T01:26:06.648Z,7.31
2022-12-25T01:28:33.358Z,7.31
2022-12-25T01:30:59.762Z,7.35
2022-12-25T01:33:26.840Z,7.34
2022-12-25T01:35:53.298Z,7.36
2022-12-25T01:38:19.756Z,7.36
2022-12-25T01:40:46.291Z,7.36
2022-12-25T01:43:33.655Z,7.38
2022-12-25T01:46:00.444Z,7.36
2022-12-25T01:48:39.234Z,7.36
2022-12-25T01:51:22.216Z,7.36
2022-12-25T01:53:48.713Z,7.35
2022-12-25T01:56:15.182Z,7.34
2022-12-25T01:58:41.818Z,7.32
2022-12-25T02:01:08.505Z,7.31
2022-12-25T02:03:35.005Z,7.31
2022-12-25T02:06:03.624Z,7.30
2022-12-25T02:08:30.916Z,7.28
2022-12-25T02:10:57.347Z,7.28
2022-12-25T02:13:23.821Z,7.26
2022-12-25T02:16:13.681Z,7.23
2022-12-25T02:18:43.738Z,7.18
2022-12-25T02:21:19.142Z,7.14
2022-12-25T02:23:57.514Z,7.15
2022-12-25T02:26:30.035Z,7.12
2022-12-25T02:29:17.464Z,7.09
2022-12-25T02:31:53.914Z,7.07
2022-12-25T02:34:44.116Z,7.06
2022-12-25T02:37:24.189Z,7.04
2022-12-25T02:39:58.737Z,7.09
2022-12-25T02:42:54.829Z,7.11
2022-12-25T02:46:02.805Z,7.09
2022-12-25T02:48:52.234Z,7.11
2022-12-25T02:51:42.094Z,7.08
2022-12-25T02:54:32.012Z,7.06
2022-12-25T02:57:21.398Z,7.08
2022-12-25T03:00:09.637Z,7.11
2022-12-25T03:02:56.515Z,7.11
2022-12-25T03:05:45.431Z,7.16
2022-12-25T03:08:16.648Z,7.19
2022-12-25T03:11:05.190Z,7.22
2022-12-25T03:13:38.968Z,7.22
2022-12-25T03:16:25.453Z,7.19
2022-12-25T03:18:55.463Z,7.20
2022-12-25T03:21:40.747Z,7.22
2022-12-25T03:24:25.726Z,7.26
2022-12-25T03:26:55.336Z,7.31
2022-12-25T03:29:45.548Z,7.34
2022-12-25T03:32:27.118Z,7.38
2022-12-25T03:35:23.828Z,7.42
2022-12-25T03:38:31.112Z,7.44
2022-12-25T03:41:33.324Z,7.47
2022-12-25T03:44:27.083Z,7.49
2022-12-25T03:47:35.175Z,7.53
2022-12-25T03:50:23.452Z,7.54
2022-12-25T03:53:11.374Z,7.58
2022-12-25T03:55:59.216Z,7.61
2022-12-25T03:58:45.712Z,7.61
2022-12-25T04:01:31.927Z,7.62
2022-12-25T04:04:17.107Z,7.63
2022-12-25T04:07:02.685Z,7.62
2022-12-25T04:09:47.521Z,7.62
2022-12-25T04:12:32.559Z,7.60
2022-12-25T04:15:17.352Z,7.54
2022-12-25T04:18:02.217Z,7.51
2022-12-25T04:20:47.210Z,7.48
2022-12-25T04:23:31.938Z,7.47
2022-12-25T04:26:19.126Z,7.45
2022-12-25T04:29:03.950Z,7.44
2022-12-25T04:31:48.805Z,7.43
2022-12-25T04:34:34.089Z,7.41
2022-12-25T04:37:00.529Z,7.40
2022-12-25T04:39:26.948Z,7.37
2022-12-25T04:41:53.427Z,7.37
2022-12-25T04:44:19.829Z,7.34
2022-12-25T04:46:46.355Z,7.32
2022-12-25T04:49:12.844Z,7.30
2022-12-25T04:51:39.318Z,7.30
2022-12-25T04:54:05.702Z,7.28
2022-12-25T04:56:33.357Z,7.27
2022-12-25T04:58:59.982Z,7.26
2022-12-25T05:01:26.447Z,7.24
2022-12-25T05:03:52.981Z,7.21
2022-12-25T05:06:20.069Z,7.20
2022-12-25T05:08:46.530Z,7.19
2022-12-25T05:11:15.640Z,7.18
2022-12-25T05:13:42.359Z,7.17
2022-12-25T05:16:14.725Z,7.15
2022-12-25T05:18:41.318Z,7.14
2022-12-25T05:21:08.099Z,7.12
2022-12-25T05:23:34.624Z,7.14
2022-12-25T05:26:07.937Z,7.13
2022-12-25T05:28:35.782Z,7.13
2022-12-25T05:31:02.353Z,7.13
2022-12-25T05:33:28.899Z,7.12
2022-12-25T05:35:55.298Z,7.11
2022-12-25T05:38:21.729Z,7.12
2022-12-25T05:40:51.287Z,7.11
2022-12-25T05:43:19.390Z,7.11
2022-12-25T05:45:45.801Z,7.11
2022-12-25T05:48:12.306Z,7.11
2022-12-25T05:50:38.988Z,7.11
2022-12-25T05:53:08.585Z,7.13
2022-12-25T05:55:39.950Z,7.14
2022-12-25T05:58:08.334Z,7.14
2022-12-25T06:00:35.448Z,7.15
2022-12-25T06:03:02.119Z,7.16
2022-12-25T06:05:28.681Z,7.16
2022-12-25T06:07:55.117Z,7.19
2022-12-25T06:10:21.752Z,7.19
2022-12-25T06:12:48.408Z,7.21
2022-12-25T06:15:15.063Z,7.21
2022-12-25T06:17:41.712Z,7.24
2022-12-25T06:20:08.760Z,7.24
2022-12-25T06:22:35.505Z,7.24
2022-12-25T06:25:02.085Z,7.25
2022-12-25T06:27:28.621Z,7.25
2022-12-25T06:29:55.386Z,7.27
2022-12-25T06:32:21.830Z,7.31
2022-12-25T06:34:48.876Z,7.33
2022-12-25T06:37:15.470Z,7.36
2022-12-25T06:39:41.893Z,7.39
2022-12-25T06:42:08.352Z,7.42
2022-12-25T06:44:34.801Z,7.43
2022-12-25T06:47:01.259Z,7.45
2022-12-25T06:49:27.699Z,7.47
2022-12-25T06:51:54.151Z,7.50
2022-12-25T06:54:20.896Z,7.51
2022-12-25T06:56:47.806Z,7.52
2022-12-25T06:59:14.549Z,7.54
2022-12-25T07:01:55.575Z,7.55
2022-12-25T07:04:35.715Z,7.58
2022-12-25T07:07:08.338Z,7.61
2022-12-25T07:09:35.692Z,7.61
2022-12-25T07:12:16.342Z,7.64
2022-12-25T07:14:43.353Z,7.64
2022-12-25T07:17:09.744Z,7.66
2022-12-25T07:19:42.704Z,7.67
2022-12-25T07:22:10.977Z,7.67
2022-12-25T07:24:37.377Z,7.67
2022-12-25T07:27:03.881Z,7.69
2022-12-25T07:29:30.311Z,7.70
2022-12-25T07:31:57.117Z,7.71
2022-12-25T07:34:23.974Z,7.71
2022-12-25T07:36:50.529Z,7.72
2022-12-25T07:39:17.664Z,7.73
2022-12-25T07:41:44.710Z,7.74
2022-12-25T07:44:11.172Z,7.75
2022-12-25T07:46:37.606Z,7.75
2022-12-25T07:49:04.068Z,7.76
2022-12-25T07:51:30.552Z,7.78
2022-12-25T07:53:57.329Z,7.78
2022-12-25T07:56:23.970Z,7.79
2022-12-25T07:58:50.484Z,7.78
2022-12-25T08:01:26.759Z,7.79
2022-12-25T08:03:55.931Z,7.80
2022-12-25T08:06:26.779Z,7.80
2022-12-25T08:08:53.248Z,7.82
2022-12-25T08:11:19.748Z,7.82
2022-12-25T08:13:46.227Z,7.82
2022-12-25T08:16:12.661Z,7.82
2022-12-25T08:18:40.225Z,7.83
2022-12-25T08:21:12.327Z,7.83
2022-12-25T08:23:41.273Z,7.85
2022-12-25T08:26:08.882Z,7.86
2022-12-25T08:28:36.061Z,7.86
2022-12-25T08:31:07.581Z,7.88
2022-12-25T08:33:34.247Z,7.88
2022-12-25T08:36:06.524Z,7.89
2022-12-25T08:38:33.425Z,7.90
2022-12-25T08:40:59.901Z,7.90
2022-12-25T08:43:26.595Z,7.90
2022-12-25T08:45:53.379Z,7.91
2022-12-25T08:48:20.544Z,7.90
2022-12-25T08:50:48.908Z,7.92
2022-12-25T08:53:15.864Z,7.92
2022-12-25T08:55:44.705Z,7.93
2022-12-25T08:58:12.061Z,7.95
2022-12-25T09:00:40.932Z,7.96
2022-12-25T09:03:07.745Z,7.97
2022-12-25T09:05:35.914Z,7.97
2022-12-25T09:08:02.714Z,7.99
2022-12-25T09:10:29.833Z,8.00
2022-12-25T09:12:57.017Z,8.01
2022-12-25T09:15:23.781Z,8.02
2022-12-25T09:17:50.464Z,8.04
2022-12-25T09:20:17.106Z,8.06
2022-12-25T09:22:44.098Z,8.06
2022-12-25T09:25:12.205Z,8.07
2022-12-25T09:27:39.283Z,8.09
2022-12-25T09:30:07.243Z,8.10
2022-12-25T09:32:33.949Z,8.11
2022-12-25T09:35:00.446Z,8.10
2022-12-25T09:37:27.863Z,8.13
2022-12-25T09:39:54.404Z,8.14
2022-12-25T09:42:25.173Z,8.16
2022-12-25T09:45:04.555Z,8.17
2022-12-25T09:47:38.374Z,8.16
2022-12-25T09:50:23.699Z,8.18
2022-12-25T09:52:57.595Z,8.17
2022-12-25T09:55:28.842Z,8.19
2022-12-25T09:58:01.199Z,8.21
2022-12-25T10:00:38.125Z,8.23
2022-12-25T10:03:32.937Z,8.22
2022-12-25T10:06:05.547Z,8.23
2022-12-25T10:08:59.394Z,8.22
2022-12-25T10:12:11.760Z,8.23
2022-12-25T10:14:57.054Z,8.23
2022-12-25T10:17:32.363Z,8.24
2022-12-25T10:20:34.542Z,8.23
2022-12-25T10:23:03.890Z,8.23
2022-12-25T10:25:31.721Z,8.25
2022-12-25T10:28:09.881Z,8.25
2022-12-25T10:30:36.842Z,8.25
2022-12-25T10:33:03.565Z,8.26
2022-12-25T10:35:31.698Z,8.26
2022-12-25T10:38:11.627Z,8.25
2022-12-25T10:40:51.786Z,8.27
2022-12-25T10:43:23.991Z,8.29
2022-12-25T10:45:50.548Z,8.31
2022-12-25T10:48:26.463Z,8.31
2022-12-25T10:50:53.056Z,8.31
2022-12-25T10:53:27.566Z,8.31
2022-12-25T10:56:01.595Z,8.32
2022-12-25T10:58:29.154Z,8.32
2022-12-25T11:00:59.951Z,8.34
2022-12-25T11:03:32.740Z,8.34
2022-12-25T11:06:02.913Z,8.36
2022-12-25T11:08:31.468Z,8.38
2022-12-25T11:11:06.376Z,8.39
2022-12-25T11:13:50.689Z,8.40
2022-12-25T11:16:38.562Z,8.42
2022-12-25T11:19:24.051Z,8.43
2022-12-25T11:21:52.861Z,8.43
2022-12-25T11:24:26.004Z,8.43
2022-12-25T11:26:55.565Z,8.45
2022-12-25T11:29:42.296Z,8.44
2022-12-25T11:32:19.303Z,8.46
2022-12-25T11:34:47.823Z,8.46
2022-12-25T11:37:48.852Z,8.50
2022-12-25T11:40:22.684Z,8.53
2022-12-25T11:43:07.585Z,8.57
2022-12-25T11:45:45.364Z,8.59
2022-12-25T11:48:17.996Z,8.63
2022-12-25T11:50:55.112Z,8.67
2022-12-25T11:53:39.664Z,8.69
2022-12-25T11:56:10.274Z,8.70
2022-12-25T11:58:44.661Z,8.69
2022-12-25T12:01:37.219Z,8.71
2022-12-25T12:04:14.056Z,8.71
2022-12-25T12:06:50.974Z,8.69
2022-12-25T12:09:35.104Z,8.69
2022-12-25T12:12:09.573Z,8.68
2022-12-25T12:14:48.501Z,8.68
2022-12-25T12:17:18.684Z,8.68
2022-12-25T12:19:45.521Z,8.68
2022-12-25T12:22:20.232Z,8.67
2022-12-25T12:25:14.999Z,8.70
2022-12-25T12:27:42.108Z,8.70
2022-12-25T12:30:24.114Z,8.71
2022-12-25T12:32:53.971Z,8.72
2022-12-25T12:35:33.673Z,8.70
2022-12-25T12:38:07.646Z,8.70
2022-12-25T12:40:41.531Z,8.68
2022-12-25T12:43:44.063Z,8.68
2022-12-25T12:46:26.086Z,8.67
2022-12-25T12:49:20.022Z,8.68
2022-12-25T12:51:46.575Z,8.67
2022-12-25T12:54:24.525Z,8.65
2022-12-25T12:57:04.786Z,8.66
2022-12-25T12:59:40.053Z,8.66
2022-12-25T13:02:24.606Z,8.66
2022-12-25T13:05:19.072Z,8.66
2022-12-25T13:08:07.122Z,8.66
2022-12-25T13:10:37.520Z,8.67
2022-12-25T13:13:18.415Z,8.68
2022-12-25T13:15:47.461Z,8.67
2022-12-25T13:18:14.884Z,8.66
2022-12-25T13:21:04.948Z,8.66
2022-12-25T13:23:36.769Z,8.66
2022-12-25T13:26:13.880Z,8.66
2022-12-25T13:28:40.446Z,8.67
2022-12-25T13:31:12.777Z,8.69
2022-12-25T13:33:41.664Z,8.68
2022-12-25T13:36:13.804Z,8.68
2022-12-25T13:38:49.463Z,8.68
2022-12-25T13:41:38.113Z,8.68
2022-12-25T13:44:16.067Z,8.68
2022-12-25T13:46:42.694Z,8.68
2022-12-25T13:49:14.950Z,8.67
2022-12-25T13:51:51.560Z,8.68
2022-12-25T13:54:23.786Z,8.68
2022-12-25T13:56:56.543Z,8.68
2022-12-25T13:59:30.626Z,8.69
2022-12-25T14:01:58.040Z,8.66
2022-12-25T14:04:30.792Z,8.66
2022-12-25T14:07:12.446Z,8.65
2022-12-25T14:09:40.756Z,8.66
2022-12-25T14:12:11.757Z,8.64
2022-12-25T14:14:43.329Z,8.64
2022-12-25T14:17:11.863Z,8.66
2022-12-25T14:19:38.596Z,8.66
2022-12-25T14:22:11.753Z,8.68
2022-12-25T14:24:39.732Z,8.66
2022-12-25T14:27:17.829Z,8.66
2022-12-25T14:29:47.248Z,8.66
2022-12-25T14:32:23.990Z,8.66
2022-12-25T14:34:57.220Z,8.67
2022-12-25T14:37:31.045Z,8.66
2022-12-25T14:40:05.037Z,8.64
2022-12-25T14:42:35.050Z,8.66
2022-12-25T14:45:06.565Z,8.66
2022-12-25T14:47:52.575Z,8.68
2022-12-25T14:50:39.375Z,8.66
2022-12-25T14:53:18.117Z,8.66
2022-12-25T14:55:50.091Z,8.66
2022-12-25T14:58:22.169Z,8.67
2022-12-25T15:01:02.958Z,8.67
2022-12-25T15:03:32.469Z,8.65
2022-12-25T15:06:21.059Z,8.68
2022-12-25T15:08:58.883Z,8.67
2022-12-25T15:11:25.747Z,8.67
2022-12-25T15:13:52.252Z,8.67
2022-12-25T15:16:56.789Z,8.67
2022-12-25T15:19:34.779Z,8.68
2022-12-25T15:22:03.835Z,8.69
2022-12-25T15:24:30.254Z,8.68
2022-12-25T15:27:00.205Z,8.69
2022-12-25T15:29:52.150Z,8.67
2022-12-25T15:32:21.835Z,8.68
2022-12-25T15:34:49.877Z,8.67
2022-12-25T15:37:17.333Z,8.68
2022-12-25T15:39:43.761Z,8.67
2022-12-25T15:42:16.032Z,8.67
2022-12-25T15:44:42.910Z,8.67
2022-12-25T15:47:11.165Z,8.67
2022-12-25T15:49:38.015Z,8.68
2022-12-25T15:52:06.345Z,8.68
2022-12-25T15:54:33.179Z,8.69
2022-12-25T15:57:05.427Z,8.69
2022-12-25T15:59:32.391Z,8.68
2022-12-25T16:02:01.543Z,8.67
2022-12-25T16:04:31.229Z,8.66
2022-12-25T16:07:02.481Z,8.66
2022-12-25T16:09:28.965Z,8.65
2022-12-25T16:11:55.360Z,8.63
2022-12-25T16:14:21.842Z,8.62
2022-12-25T16:16:48.366Z,8.61
2022-12-25T16:19:14.789Z,8.63
2022-12-25T16:21:43.505Z,8.62
2022-12-25T16:24:10.733Z,8.62
2022-12-25T16:26:37.178Z,8.63
2022-12-25T16:29:07.577Z,8.63
2022-12-25T16:31:35.433Z,8.64
2022-12-25T16:34:02.406Z,8.63
2022-12-25T16:36:29.011Z,8.66
2022-12-25T16:38:55.440Z,8.66
2022-12-25T16:41:21.995Z,8.65
2022-12-25T16:43:48.704Z,8.66
2022-12-25T16:46:25.270Z,8.65
2022-12-25T16:48:51.814Z,8.65
2022-12-25T16:51:20.890Z,8.65
2022-12-25T16:53:47.749Z,8.64
2022-12-25T16:56:21.139Z,8.63
2022-12-25T16:58:48.319Z,8.61
2022-12-25T17:01:17.983Z,8.66
2022-12-25T17:03:45.543Z,8.65
2022-12-25T17:06:22.555Z,8.66
2022-12-25T17:08:50.623Z,8.66
2022-12-25T17:11:19.445Z,8.66
2022-12-25T17:13:47.601Z,8.66
2022-12-25T17:16:17.849Z,8.66
2022-12-25T17:18:47.474Z,8.65
2022-12-25T17:21:19.318Z,8.63
2022-12-25T17:23:49.004Z,8.63
2022-12-25T17:26:15.496Z,8.62
2022-12-25T17:28:47.378Z,8.63
2022-12-25T17:31:14.541Z,8.64
2022-12-25T17:34:11.039Z,8.63
2022-12-25T17:36:37.506Z,8.60
2022-12-25T17:39:05.787Z,8.60
2022-12-25T17:41:32.806Z,8.59
2022-12-25T17:43:59.285Z,8.62
2022-12-25T17:46:28.884Z,8.64
2022-12-25T17:49:01.693Z,8.63
2022-12-25T17:51:31.847Z,8.57
2022-12-25T17:56:46.149Z,8.56
2022-12-25T17:59:18.063Z,8.58
2022-12-25T18:01:51.321Z,8.58
2022-12-25T18:04:17.908Z,8.58
2022-12-25T18:06:49.946Z,8.59
2022-12-25T18:09:16.331Z,8.58
2022-12-25T18:11:43.290Z,8.59
2022-12-25T18:14:16.017Z,8.57
2022-12-25T18:16:44.751Z,8.57
2022-12-25T18:19:16.164Z,8.55
2022-12-25T18:21:45.448Z,8.56
2022-12-25T18:24:12.061Z,8.56
2022-12-25T18:26:38.875Z,8.56
2022-12-25T18:29:08.681Z,8.57
2022-12-25T18:31:37.926Z,8.55
2022-12-25T18:34:04.631Z,8.55
2022-12-25T18:36:34.165Z,8.56
2022-12-25T18:39:00.694Z,8.55
2022-12-25T18:41:28.677Z,8.53
2022-12-25T18:43:56.038Z,8.54
2022-12-25T18:46:27.351Z,8.54
2022-12-25T18:48:55.322Z,8.55
2022-12-25T18:51:21.828Z,8.50
2022-12-25T18:56:32.403Z,8.49
2022-12-25T18:58:59.828Z,8.47
2022-12-25T19:01:26.408Z,8.48
2022-12-25T19:03:57.311Z,8.47
2022-12-25T19:06:33.264Z,8.48
2022-12-25T19:09:07.716Z,8.47
2022-12-25T19:11:46.515Z,8.48
2022-12-25T19:14:17.723Z,8.47
2022-12-25T19:16:44.454Z,8.48
2022-12-25T19:19:11.419Z,8.49
2022-12-25T19:21:37.923Z,8.48
2022-12-25T19:24:04.690Z,8.48
2022-12-25T19:26:31.101Z,8.49
2022-12-25T19:28:57.883Z,8.49
2022-12-25T19:31:24.776Z,8.48
2022-12-25T19:33:51.313Z,8.49
2022-12-25T19:36:17.850Z,8.48
2022-12-25T19:38:44.446Z,8.50
2022-12-25T19:41:16.144Z,8.49
2022-12-25T19:43:44.374Z,8.49
2022-12-25T19:46:16.988Z,8.48
2022-12-25T19:48:43.788Z,8.47
2022-12-25T19:51:19.063Z,8.49
2022-12-25T19:53:46.586Z,8.50
2022-12-25T19:56:13.207Z,8.49
2022-12-25T19:58:40.022Z,8.48
2022-12-25T20:03:54.157Z,8.48
2022-12-25T20:06:29.357Z,8.48
2022-12-25T20:08:58.729Z,8.48
2022-12-25T20:11:46.766Z,8.49
2022-12-25T20:14:16.142Z,8.49
2022-12-25T20:16:44.831Z,8.47
2022-12-25T20:19:13.029Z,8.48
2022-12-25T20:21:42.665Z,8.48
2022-12-25T20:24:11.005Z,8.50
2022-12-25T20:26:38.904Z,8.49
2022-12-25T20:29:05.605Z,8.52
2022-12-25T20:31:34.414Z,8.52
2022-12-25T20:34:08.818Z,8.52
2022-12-25T20:36:37.496Z,8.50
2022-12-25T20:39:08.562Z,8.49
2022-12-25T20:41:35.101Z,8.50
2022-12-25T20:44:02.020Z,8.49
2022-12-25T20:46:28.566Z,8.49
2022-12-25T20:48:55.071Z,8.49
2022-12-25T20:51:24.283Z,8.49
2022-12-25T20:53:52.101Z,8.50
2022-12-25T20:56:20.190Z,8.49
2022-12-25T20:58:46.867Z,8.50
2022-12-25T21:01:17.091Z,8.51
2022-12-25T21:03:44.702Z,8.53
2022-12-25T21:06:12.254Z,8.52
2022-12-25T21:08:40.641Z,8.51
2022-12-25T21:11:08.204Z,8.54
2022-12-25T21:13:40.362Z,8.54
2022-12-25T21:16:13.286Z,8.53
2022-12-25T21:18:39.740Z,8.53
2022-12-25T21:21:07.571Z,8.54
2022-12-25T21:23:36.022Z,8.54
2022-12-25T21:26:31.305Z,8.56
2022-12-25T21:29:00.379Z,8.56
2022-12-25T21:31:28.113Z,8.57
2022-12-25T21:33:55.758Z,8.56
2022-12-25T21:36:31.448Z,8.56
2022-12-25T21:39:02.090Z,8.58
2022-12-25T21:41:30.973Z,8.57
2022-12-25T21:43:57.898Z,8.56
2022-12-25T21:46:25.384Z,8.58
2022-12-25T21:48:51.991Z,8.58
2022-12-25T21:51:40.230Z,8.59
2022-12-25T21:54:07.195Z,8.59
2022-12-25T21:56:43.049Z,8.60
2022-12-25T21:59:12.548Z,8.61
2022-12-25T22:01:39.139Z,8.62
2022-12-25T22:04:10.028Z,8.62
2022-12-25T22:06:55.682Z,8.63
2022-12-25T22:09:23.014Z,8.63
2022-12-25T22:12:08.244Z,8.65
2022-12-25T22:14:52.657Z,8.64
2022-12-25T22:17:44.902Z,8.65
2022-12-25T22:20:17.738Z,8.66
2022-12-25T22:22:44.555Z,8.66
2022-12-25T22:25:11.993Z,8.66
2022-12-25T22:27:40.053Z,8.66
2022-12-25T22:30:10.131Z,8.68
2022-12-25T22:32:37.189Z,8.69
2022-12-25T22:35:04.045Z,8.70
2022-12-25T22:37:30.520Z,8.69
2022-12-25T22:39:57.423Z,8.69
2022-12-25T22:42:24.000Z,8.69
2022-12-25T22:44:50.533Z,8.70
2022-12-25T22:47:17.003Z,8.71
2022-12-25T22:49:43.404Z,8.71
2022-12-25T22:52:10.118Z,8.71
2022-12-25T22:54:37.010Z,8.71
2022-12-25T22:57:03.818Z,8.73
2022-12-25T22:59:30.279Z,8.72
2022-12-25T23:01:56.888Z,8.72
2022-12-25T23:04:23.879Z,8.73
2022-12-25T23:06:50.481Z,8.73
2022-12-25T23:09:24.399Z,8.74
2022-12-25T23:11:51.434Z,8.74
2022-12-25T23:14:36.487Z,8.73
2022-12-25T23:17:03.341Z,8.73
2022-12-25T23:19:48.611Z,8.74
2022-12-25T23:22:34.020Z,8.73
2022-12-25T23:25:23.578Z,8.73
2022-12-25T23:27:49.979Z,8.74
2022-12-25T23:30:16.806Z,8.74
2022-12-25T23:32:44.091Z,8.75
2022-12-25T23:35:11.787Z,8.76
2022-12-25T23:37:38.325Z,8.76
2022-12-25T23:40:05.318Z,8.76
2022-12-25T23:42:31.856Z,8.76
2022-12-25T23:44:58.343Z,8.76
2022-12-25T23:47:24.758Z,8.78
2022-12-25T23:49:51.143Z,8.77
2022-12-25T23:52:17.545Z,8.77
2022-12-25T23:54:43.929Z,8.77
2022-12-25T23:57:10.471Z,8.78
2022-12-25T23:59:36.891Z,8.78
